Time;durP1;ratioP1;P1;durP2;ratioP2;P2;SDS_P1;SDS_P2;PMS_P1;PMS_P2;Temp;Humidity;BMP_temperature;BMP_pressure;BME280_temperature;BME280_humidity;BME280_pressure;Samples;Min_cycle;Max_cycle;Signal;HPM_P1;HPM_P2
2022/06/26 00:01:44;;;;;;;;;;;;;;;15.99;100.00;90956.38;5052334;28;19916;-64
2022/06/26 00:04:10;;;;;;;;;;;;;;;15.96;100.00;90959.72;5052200;28;19916;-64
2022/06/26 00:06:35;;;;;;;;;;;;;;;16.01;100.00;90970.22;5052107;28;19916;-64
2022/06/26 00:09:00;;;;;;;;;;;;;;;16.06;100.00;90967.28;5052216;28;19913;-64
2022/06/26 00:11:26;;;;;;;;;;;;;;;16.10;100.00;90960.13;5052295;28;19913;-64
2022/06/26 00:13:51;;;;;;;;;;;;;;;16.06;100.00;90962.69;5051928;28;19913;-64
2022/06/26 00:16:16;;;;;;;;;;;;;;;16.04;100.00;90970.31;5052052;28;20339;-64
2022/06/26 00:18:42;;;;;;;;;;;;;;;16.04;100.00;90973.00;5051983;28;19913;-64
2022/06/26 00:21:08;;;;;;;;;;;;;;;16.03;100.00;90978.69;5051953;28;20009;-64
2022/06/26 00:23:34;;;;;;;;;;;;;;;15.97;100.00;90974.72;5051903;28;20011;-64
2022/06/26 00:26:00;;;;;;;;;;;;;;;16.04;100.00;90977.59;5051959;28;20003;-64
2022/06/26 00:28:25;;;;;;;;;;;;;;;16.08;100.00;90984.59;5052003;28;19962;-64
2022/06/26 00:30:50;;;;;;;;;;;;;;;16.10;100.00;90990.44;5051876;28;19913;-64
2022/06/26 00:33:16;;;;;;;;;;;;;;;16.13;100.00;90997.03;5051690;28;20314;-64
2022/06/26 00:35:41;;;;;;;;;;;;;;;16.02;100.00;90988.66;5051601;28;19970;-64
2022/06/26 00:38:06;;;;;;;;;;;;;;;16.06;100.00;90992.22;5051619;28;19939;-64
2022/06/26 00:40:32;;;;;;;;;;;;;;;16.06;100.00;90996.81;5051697;28;19913;-64
2022/06/26 00:42:57;;;;;;;;;;;;;;;16.06;100.00;91004.84;5051648;28;19920;-64
2022/06/26 00:45:22;;;;;;;;;;;;;;;16.10;100.00;91011.13;5051681;28;19920;-64
2022/06/26 00:47:47;;;;;;;;;;;;;;;16.04;100.00;91015.94;5051648;28;19919;-64
2022/06/26 00:50:13;;;;;;;;;;;;;;;16.00;100.00;91016.94;5051570;28;19919;-64
2022/06/26 00:52:39;;;;;;;;;;;;;;;15.93;100.00;91022.88;5051582;28;19923;-64
2022/06/26 00:55:05;;;;;;;;;;;;;;;15.80;100.00;91024.81;5033646;28;19931;-64
2022/06/26 00:57:30;;;;;;;;;;;;;;;15.78;100.00;91026.25;5051443;28;20003;-64
2022/06/26 00:59:56;;;;;;;;;;;;;;;15.79;100.00;91025.94;5051544;28;19920;-64
2022/06/26 01:02:22;;;;;;;;;;;;;;;15.82;100.00;91029.84;5051379;28;19912;-64
2022/06/26 01:04:47;;;;;;;;;;;;;;;15.78;100.00;91024.38;5051528;28;19919;-64
2022/06/26 01:07:13;;;;;;;;;;;;;;;15.78;100.00;91026.25;5051304;28;20291;-64
2022/06/26 01:09:38;;;;;;;;;;;;;;;15.84;100.00;91025.69;5051429;28;20401;-64
2022/06/26 01:12:04;;;;;;;;;;;;;;;15.86;100.00;91015.41;5051263;28;19923;-64
2022/06/26 01:14:30;;;;;;;;;;;;;;;15.84;100.00;91012.28;5051306;28;19917;-64
2022/06/26 01:16:55;;;;;;;;;;;;;;;15.87;100.00;91000.88;5051444;28;20402;-64
2022/06/26 01:19:20;;;;;;;;;;;;;;;15.92;100.00;91002.53;5051327;28;19966;-64
2022/06/26 01:21:46;;;;;;;;;;;;;;;15.95;100.00;91017.97;5051379;28;20046;-64
2022/06/26 01:24:13;;;;;;;;;;;;;;;15.99;100.00;91015.38;5051225;28;19920;-64
2022/06/26 01:26:40;;;;;;;;;;;;;;;15.90;100.00;91006.69;5051225;28;20330;-64
2022/06/26 01:29:05;;;;;;;;;;;;;;;15.94;100.00;90996.81;5051554;28;19924;-64
2022/06/26 01:31:34;;;;;;;;;;;;;;;15.95;100.00;91001.09;5051270;28;19913;-64
2022/06/26 01:34:02;;;;;;;;;;;;;;;15.90;100.00;91001.31;5051097;28;20066;-64
2022/06/26 01:36:27;;;;;;;;;;;;;;;15.76;100.00;91005.13;5051159;28;19919;-64
2022/06/26 01:38:53;;;;;;;;;;;;;;;15.69;100.00;91006.84;5051219;28;19913;-64
2022/06/26 01:41:18;;;;;;;;;;;;;;;15.64;100.00;91012.44;5051169;28;19982;-64
2022/06/26 01:43:43;;;;;;;;;;;;;;;15.62;100.00;91007.41;5051335;28;19913;-64
2022/06/26 01:46:09;;;;;;;;;;;;;;;15.72;100.00;91011.53;5051135;28;19921;-64
2022/06/26 01:48:37;;;;;;;;;;;;;;;15.72;100.00;91011.53;5053840;28;19923;-64
2022/06/26 01:51:03;;;;;;;;;;;;;;;15.71;100.00;91012.63;5054841;28;19971;-64
2022/06/26 01:53:28;;;;;;;;;;;;;;;15.71;100.00;91018.78;5054672;28;19916;-64
2022/06/26 01:55:54;;;;;;;;;;;;;;;15.68;100.00;91016.78;5054726;28;20387;-64
2022/06/26 01:58:19;;;;;;;;;;;;;;;15.68;100.00;91011.41;5054673;28;19917;-64
2022/06/26 02:00:45;;;;;;;;;;;;;;;15.77;100.00;91009.38;5054667;28;19935;-64
2022/06/26 02:03:11;;;;;;;;;;;;;;;15.80;100.00;91007.94;5054714;28;19913;-64
2022/06/26 02:05:37;;;;;;;;;;;;;;;15.81;100.00;91007.59;5184972;23;19927;-66
2022/06/26 02:08:03;;;;;;;;;;;;;;;15.84;100.00;91012.28;5034527;28;19919;-66
2022/06/26 02:15:56;;;;;;;;;;;;;;;15.92;100.00;91015.94;5034682;28;19962;-66
2022/06/26 02:18:22;;;;;;;;;;;;;;;15.96;100.00;91014.19;5034368;28;20011;-66
2022/06/26 02:20:47;;;;;;;;;;;;;;;16.01;100.00;91010.47;5034353;28;19912;-66
2022/06/26 02:23:13;;;;;;;;;;;;;;;16.06;100.00;90999.50;5034279;28;19919;-66
2022/06/26 02:25:38;;;;;;;;;;;;;;;16.03;100.00;91013.59;5034019;28;19913;-66
2022/06/26 02:28:04;;;;;;;;;;;;;;;16.06;100.00;91012.91;5034214;28;20140;-66
2022/06/26 02:30:29;;;;;;;;;;;;;;;16.11;100.00;91002.72;5034123;28;19921;-66
2022/06/26 02:32:56;;;;;;;;;;;;;;;16.04;100.00;91004.41;5034104;28;19980;-65
2022/06/26 02:35:22;;;;;;;;;;;;;;;16.08;100.00;91010.66;5033914;28;19944;-66
2022/06/26 02:37:47;;;;;;;;;;;;;;;16.07;100.00;91009.09;5033990;28;19964;-66
2022/06/26 02:40:15;;;;;;;;;;;;;;;16.11;100.00;91002.72;5033958;28;19913;-66
2022/06/26 02:42:41;;;;;;;;;;;;;;;16.07;100.00;91011.78;5016151;28;20414;-66
2022/06/26 02:45:06;;;;;;;;;;;;;;;16.06;100.00;91012.91;5033746;28;19939;-66
2022/06/26 02:47:32;;;;;;;;;;;;;;;15.95;100.00;91004.56;5033807;28;19913;-66
2022/06/26 02:49:57;;;;;;;;;;;;;;;15.97;100.00;91010.38;5034010;28;19919;-65
2022/06/26 02:52:22;;;;;;;;;;;;;;;16.02;100.00;91001.28;5033756;28;20393;-66
2022/06/26 02:54:48;;;;;;;;;;;;;;;16.07;100.00;91003.72;5033533;28;19913;-66
2022/06/26 02:57:13;;;;;;;;;;;;;;;16.01;100.00;90997.03;5033689;28;19913;-66
2022/06/26 02:59:38;;;;;;;;;;;;;;;15.92;100.00;91002.53;5033276;28;19967;-64
2022/06/26 03:02:04;;;;;;;;;;;;;;;15.85;100.00;91000.44;5033597;28;20287;-66
2022/06/26 03:04:29;;;;;;;;;;;;;;;15.81;100.00;91002.25;5033287;28;20322;-65
2022/06/26 03:06:54;;;;;;;;;;;;;;;15.78;100.00;90994.88;5033466;28;19920;-65
2022/06/26 03:09:19;;;;;;;;;;;;;;;15.76;100.00;90997.09;5033429;28;20099;-66
2022/06/26 03:11:45;;;;;;;;;;;;;;;15.69;100.00;90993.41;5033396;28;20038;-66
2022/06/26 03:14:10;;;;;;;;;;;;;;;15.65;100.00;91000.59;5033116;28;19999;-66
2022/06/26 03:16:35;;;;;;;;;;;;;;;15.60;100.00;91001.56;5033265;28;20007;-66
2022/06/26 03:19:01;;;;;;;;;;;;;;;15.55;100.00;90991.06;5015069;28;19913;-66
2022/06/26 03:21:27;;;;;;;;;;;;;;;15.49;100.00;90995.88;5033119;28;19920;-66
2022/06/26 03:24:01;;;;;;;;;;;;;;;15.48;100.00;90998.91;5028294;28;20401;-66
2022/06/26 03:26:27;;;;;;;;;;;;;;;15.50;100.00;91000.13;5005743;28;19959;-68
2022/06/26 03:28:52;;;;;;;;;;;;;;;15.53;100.00;90999.44;5031002;28;19960;-69
2022/06/26 03:31:18;;;;;;;;;;;;;;;15.63;100.00;91014.34;5033020;28;19913;-68
2022/06/26 03:33:43;;;;;;;;;;;;;;;15.71;100.00;91013.41;5032888;28;19917;-69
2022/06/26 03:36:08;;;;;;;;;;;;;;;15.87;100.00;91013.50;5032845;28;20011;-69
2022/06/26 03:38:34;;;;;;;;;;;;;;;15.97;100.00;91010.38;5032825;28;19995;-69
2022/06/26 03:41:00;;;;;;;;;;;;;;;16.05;100.00;91004.06;5032868;28;19917;-69
2022/06/26 03:43:25;;;;;;;;;;;;;;;16.08;100.00;91000.69;5032776;28;19917;-69
2022/06/26 03:45:50;;;;;;;;;;;;;;;16.11;100.00;91001.94;5014920;28;20427;-69
2022/06/26 03:48:16;;;;;;;;;;;;;;;16.10;100.00;91000.38;5032651;28;20019;-69
2022/06/26 03:50:41;;;;;;;;;;;;;;;16.05;100.00;91000.59;5032702;28;19913;-69
2022/06/26 03:53:06;;;;;;;;;;;;;;;15.90;100.00;90998.63;5032655;28;19956;-68
2022/06/26 03:55:32;;;;;;;;;;;;;;;15.94;100.00;91000.31;5032438;28;19952;-69
2022/06/26 03:57:57;;;;;;;;;;;;;;;15.91;100.00;91005.56;5032797;28;19921;-69
2022/06/26 04:00:22;;;;;;;;;;;;;;;15.92;100.00;91010.59;5032459;28;20004;-68
2022/06/26 04:02:48;;;;;;;;;;;;;;;15.86;100.00;91006.56;5032431;28;19913;-68
2022/06/26 04:05:13;;;;;;;;;;;;;;;15.88;100.00;91004.34;5032202;28;19931;-67
2022/06/26 04:07:39;;;;;;;;;;;;;;;15.93;100.00;91011.38;5032665;28;19917;-67
2022/06/26 04:10:04;;;;;;;;;;;;;;;15.96;100.00;91010.72;5032225;28;20661;-67
2022/06/26 04:12:30;;;;;;;;;;;;;;;16.29;100.00;91019.34;5031512;28;19917;-68
2022/06/26 04:14:55;;;;;;;;;;;;;;;16.54;100.00;91008.50;5032073;28;20417;-68
2022/06/26 04:17:20;;;;;;;;;;;;;;;16.52;100.00;91018.81;5032206;28;20008;-68
2022/06/26 04:19:47;;;;;;;;;;;;;;;16.52;100.00;91022.25;5032129;28;19951;-68
2022/06/26 04:22:12;;;;;;;;;;;;;;;16.26;100.00;91030.75;5032333;28;19912;-67
2022/06/26 04:24:37;;;;;;;;;;;;;;;16.10;100.00;91032.59;5031995;28;20428;-69
2022/06/26 04:27:03;;;;;;;;;;;;;;;16.19;100.00;91038.59;5032038;28;19913;-68
2022/06/26 04:29:28;;;;;;;;;;;;;;;16.34;100.00;91037.88;5031998;28;20003;-68
2022/06/26 04:31:53;;;;;;;;;;;;;;;16.37;100.00;91053.31;5032022;28;19913;-69
2022/06/26 04:34:18;;;;;;;;;;;;;;;16.37;100.00;91047.94;5031721;28;19917;-69
2022/06/26 04:36:44;;;;;;;;;;;;;;;16.45;100.00;91046.25;5031942;28;19956;-69
2022/06/26 04:39:09;;;;;;;;;;;;;;;16.87;100.00;91037.81;5031871;28;19921;-69
2022/06/26 04:41:35;;;;;;;;;;;;;;;17.59;100.00;91041.94;5031847;28;19967;-69
2022/06/26 04:44:05;;;;;;;;;;;;;;;17.34;100.00;91035.94;5014041;28;19913;-67
2022/06/26 04:46:31;;;;;;;;;;;;;;;17.30;100.00;91034.31;5031803;28;19949;-69
2022/06/26 04:48:56;;;;;;;;;;;;;;;17.36;100.00;91049.06;5031782;28;20388;-68
2022/06/26 04:51:22;;;;;;;;;;;;;;;17.24;100.00;91046.47;5031773;28;19919;-69
2022/06/26 04:53:47;;;;;;;;;;;;;;;17.27;100.00;91051.94;5031640;28;20473;-69
2022/06/26 04:56:12;;;;;;;;;;;;;;;17.40;100.00;91041.88;5031584;28;19913;-68
2022/06/26 04:58:38;;;;;;;;;;;;;;;17.39;100.00;91039.53;5031660;28;19921;-69
2022/06/26 05:01:04;;;;;;;;;;;;;;;17.41;100.00;91043.44;5031653;28;20311;-69
2022/06/26 05:03:30;;;;;;;;;;;;;;;17.46;100.00;91047.75;5031827;28;19936;-68
2022/06/26 05:05:55;;;;;;;;;;;;;;;17.60;100.00;91043.50;5013773;28;20043;-69
2022/06/26 05:08:21;;;;;;;;;;;;;;;17.66;100.00;91047.47;5031543;28;19963;-69
2022/06/26 05:10:46;;;;;;;;;;;;;;;17.83;100.00;91049.09;5031573;28;20370;-68
2022/06/26 05:13:11;;;;;;;;;;;;;;;18.10;100.00;91047.38;5031546;28;20399;-68
2022/06/26 05:15:38;;;;;;;;;;;;;;;18.16;100.00;91056.75;5031285;28;19913;-68
2022/06/26 05:18:03;;;;;;;;;;;;;;;17.84;100.00;91060.63;5031466;28;19917;-68
2022/06/26 05:20:28;;;;;;;;;;;;;;;17.75;100.00;91065.41;5031454;28;19921;-69
2022/06/26 05:22:54;;;;;;;;;;;;;;;17.55;100.00;91062.63;5033185;28;19917;-69
2022/06/26 05:25:19;;;;;;;;;;;;;;;17.47;100.00;91073.53;5035172;28;20016;-69
2022/06/26 05:27:44;;;;;;;;;;;;;;;17.71;100.00;91070.72;5035337;28;19920;-69
2022/06/26 05:30:10;;;;;;;;;;;;;;;17.97;100.00;91070.16;5035281;28;19916;-69
2022/06/26 05:32:35;;;;;;;;;;;;;;;18.12;100.00;91076.63;5035271;28;19936;-68
2022/06/26 05:35:01;;;;;;;;;;;;;;;18.36;100.00;91076.41;5035056;28;19917;-69
2022/06/26 05:37:26;;;;;;;;;;;;;;;18.58;100.00;91072.25;5035148;28;20027;-69
2022/06/26 05:39:51;;;;;;;;;;;;;;;18.84;100.00;91072.44;5035132;28;19913;-68
2022/06/26 05:42:17;;;;;;;;;;;;;;;19.23;100.00;91060.81;5035044;28;19963;-68
2022/06/26 05:44:42;;;;;;;;;;;;;;;19.48;100.00;91064.75;5034954;28;20003;-67
2022/06/26 05:47:07;;;;;;;;;;;;;;;19.36;100.00;91070.31;5034940;28;19983;-69
2022/06/26 05:49:33;;;;;;;;;;;;;;;19.65;100.00;91082.41;5034952;28;19919;-68
2022/06/26 05:51:58;;;;;;;;;;;;;;;19.59;100.00;91083.88;5034919;28;19921;-69
2022/06/26 05:54:23;;;;;;;;;;;;;;;20.00;100.00;91091.09;5034644;28;19953;-69
2022/06/26 05:56:49;;;;;;;;;;;;;;;20.55;100.00;91091.56;5034853;28;20390;-69
2022/06/26 05:59:14;;;;;;;;;;;;;;;20.18;100.00;91096.00;5035006;28;19917;-69
2022/06/26 06:01:39;;;;;;;;;;;;;;;20.48;100.00;91096.84;5034961;28;20360;-69
2022/06/26 06:04:06;;;;;;;;;;;;;;;21.18;100.00;91090.03;5034585;28;19975;-69
2022/06/26 06:06:31;;;;;;;;;;;;;;;21.82;100.00;91091.50;5034508;28;19917;-68
2022/06/26 06:08:56;;;;;;;;;;;;;;;21.47;100.00;91102.00;5034573;28;19936;-69
2022/06/26 06:11:22;;;;;;;;;;;;;;;22.18;100.00;91096.47;5034556;28;19999;-69
2022/06/26 06:13:47;;;;;;;;;;;;;;;22.74;100.00;91090.66;5034425;28;19913;-68
2022/06/26 06:16:12;;;;;;;;;;;;;;;22.83;100.00;91093.84;5034440;28;20420;-70
2022/06/26 06:18:38;;;;;;;;;;;;;;;23.89;94.88;91092.69;5034458;28;19920;-69
2022/06/26 06:21:03;;;;;;;;;;;;;;;23.95;86.43;91091.13;5034368;28;20310;-69
2022/06/26 06:23:28;;;;;;;;;;;;;;;24.22;83.79;91101.63;5034365;28;20437;-69
2022/06/26 06:25:54;;;;;;;;;;;;;;;23.49;88.33;91105.34;5034246;28;19920;-69
2022/06/26 06:28:20;;;;;;;;;;;;;;;23.82;92.40;91104.28;5034227;28;19917;-69
2022/06/26 06:30:45;;;;;;;;;;;;;;;23.98;93.26;91105.88;5034163;28;19916;-70
2022/06/26 06:33:11;;;;;;;;;;;;;;;23.57;93.16;91117.06;5033625;28;19913;-70
2022/06/26 06:35:36;;;;;;;;;;;;;;;24.08;93.88;91116.00;5021549;28;19924;-69
2022/06/26 06:38:01;;;;;;;;;;;;;;;24.85;86.84;91113.66;5023713;28;19913;-68
2022/06/26 06:40:27;;;;;;;;;;;;;;;24.86;84.12;91117.94;5024001;28;19913;-69
2022/06/26 06:42:52;;;;;;;;;;;;;;;24.45;87.88;91112.91;5024691;28;19921;-67
2022/06/26 06:45:17;;;;;;;;;;;;;;;25.90;78.55;91116.44;5014148;28;20370;-68
2022/06/26 06:47:49;;;;;;;;;;;;;;;24.76;84.72;91116.78;5033510;28;19917;-68
2022/06/26 06:50:14;;;;;;;;;;;;;;;25.22;81.59;91115.94;5033666;28;19952;-67
2022/06/26 06:52:42;;;;;;;;;;;;;;;25.13;81.10;91115.59;5033184;28;19951;-68
2022/06/26 06:55:08;;;;;;;;;;;;;;;26.52;70.58;91100.06;5033316;28;19913;-68
2022/06/26 06:57:33;;;;;;;;;;;;;;;26.09;72.51;91107.75;5033473;28;19917;-68
2022/06/26 06:59:59;;;;;;;;;;;;;;;27.10;66.97;91103.81;5033393;28;19971;-68
2022/06/26 07:02:24;;;;;;;;;;;;;;;28.42;62.34;91101.44;5033252;28;20387;-69
2022/06/26 07:04:49;;;;;;;;;;;;;;;29.34;59.36;91115.50;5011935;28;19990;-66
2022/06/26 07:07:15;;;;;;;;;;;;;;;27.89;59.46;91109.16;5013199;28;20322;-68
2022/06/26 07:09:40;;;;;;;;;;;;;;;27.41;62.72;91114.81;5013564;28;19920;-67
2022/06/26 07:12:06;;;;;;;;;;;;;;;26.97;59.11;91123.81;4996924;28;20450;-67
2022/06/26 07:14:31;;;;;;;;;;;;;;;28.26;58.95;91126.69;4999859;28;19925;-68
2022/06/26 07:16:56;;;;;;;;;;;;;;;27.67;58.12;91130.53;5002359;28;19919;-67
2022/06/26 07:19:22;;;;;;;;;;;;;;;27.49;59.50;91121.75;4993682;28;19925;-68
2022/06/26 07:21:47;;;;;;;;;;;;;;;29.39;57.68;91126.78;4993160;28;19909;-67
2022/06/26 07:24:14;;;;;;;;;;;;;;;32.89;46.64;91127.94;4993553;28;19945;-68
2022/06/26 07:26:39;;;;;;;;;;;;;;;32.35;46.76;91123.28;4993554;28;20775;-68
2022/06/26 07:29:05;;;;;;;;;;;;;;;31.14;49.42;91121.03;4993593;28;19914;-69
2022/06/26 07:31:31;;;;;;;;;;;;;;;31.54;50.49;91127.06;4993538;28;19914;-68
2022/06/26 07:36:41;;;;;;;;;;;;;;;35.19;44.05;91133.88;4992954;28;19972;-67
2022/06/26 07:39:07;;;;;;;;;;;;;;;35.33;41.54;91124.22;4993055;28;19913;-69
2022/06/26 07:41:33;;;;;;;;;;;;;;;34.78;42.13;91133.09;4993404;28;20406;-69
2022/06/26 07:43:58;;;;;;;;;;;;;;;35.41;42.39;91128.25;4993176;28;19929;-69
2022/06/26 07:46:23;;;;;;;;;;;;;;;36.30;39.07;91129.97;4993148;28;19924;-69
2022/06/26 07:48:49;;;;;;;;;;;;;;;36.87;38.27;91136.47;4993144;28;19918;-68
2022/06/26 07:51:14;;;;;;;;;;;;;;;35.09;40.79;91135.06;4992808;28;20450;-69
2022/06/26 07:53:39;;;;;;;;;;;;;;;33.06;43.46;91129.34;4992956;28;19923;-69
2022/06/26 07:56:05;;;;;;;;;;;;;;;30.65;47.50;91129.31;4991798;28;19933;-68
2022/06/26 07:58:31;;;;;;;;;;;;;;;29.68;49.62;91129.00;4995383;28;20347;-69
2022/06/26 08:00:56;;;;;;;;;;;;;;;29.90;49.25;91135.59;4993075;28;20008;-68
2022/06/26 08:03:22;;;;;;;;;;;;;;;31.92;48.12;91128.47;4995454;28;19977;-68
2022/06/26 08:05:48;;;;;;;;;;;;;;;33.40;44.67;91121.56;5004243;28;19995;-68
2022/06/26 08:08:13;;;;;;;;;;;;;;;34.97;43.07;91127.66;5012482;28;19913;-68
2022/06/26 08:10:39;;;;;;;;;;;;;;;35.32;41.05;91131.75;5012422;28;19917;-66
2022/06/26 08:13:05;;;;;;;;;;;;;;;36.77;38.76;91129.41;5020554;28;19975;-66
2022/06/26 08:15:30;;;;;;;;;;;;;;;35.55;39.40;91124.91;5031869;28;19917;-66
2022/06/26 08:17:55;;;;;;;;;;;;;;;38.57;37.43;91129.16;5032022;28;20422;-67
2022/06/26 08:20:21;;;;;;;;;;;;;;;34.89;36.48;91129.19;5031962;28;19963;-67
2022/06/26 08:22:46;;;;;;;;;;;;;;;34.03;39.06;91129.59;5025351;28;19996;-68
2022/06/26 08:25:12;;;;;;;;;;;;;;;35.01;39.98;91128.28;5022712;28;19924;-68
2022/06/26 08:27:37;;;;;;;;;;;;;;;37.56;35.50;91125.63;5020125;28;19913;-68
2022/06/26 08:30:03;;;;;;;;;;;;;;;37.49;37.16;91121.22;5022053;28;19913;-67
2022/06/26 08:32:29;;;;;;;;;;;;;;;36.68;37.14;91117.56;5019190;28;19966;-68
2022/06/26 08:34:54;;;;;;;;;;;;;;;37.38;36.01;91129.28;5017462;28;19921;-68
2022/06/26 08:37:19;;;;;;;;;;;;;;;36.40;37.46;91123.19;5011491;28;20375;-68
2022/06/26 08:39:44;;;;;;;;;;;;;;;36.47;35.56;91131.19;5012023;28;19921;-68
2022/06/26 08:42:10;;;;;;;;;;;;;;;34.43;38.16;91124.19;5011755;28;19928;-68
2022/06/26 08:44:41;;;;;;;;;;;;;;;34.31;38.57;91121.50;5024526;28;19917;-68
2022/06/26 08:47:07;;;;;;;;;;;;;;;33.15;40.35;91125.13;5031479;28;19917;-65
2022/06/26 08:49:32;;;;;;;;;;;;;;;32.71;40.93;91117.44;5031570;28;19913;-66
2022/06/26 08:51:58;;;;;;;;;;;;;;;32.88;41.01;91120.09;5033035;28;19913;-65
2022/06/26 08:54:26;;;;;;;;;;;;;;;33.35;40.78;91126.44;5026914;28;19925;-66
2022/06/26 08:56:52;;;;;;;;;;;;;;;34.55;41.49;91128.06;5019364;28;20010;-65
2022/06/26 08:59:18;;;;;;;;;;;;;;;36.33;37.04;91123.53;5051095;28;19955;-65
2022/06/26 09:01:43;;;;;;;;;;;;;;;36.14;35.53;91120.00;5051037;28;20022;-65
2022/06/26 09:04:10;;;;;;;;;;;;;;;35.75;37.29;91127.22;5051581;28;19909;-64
2022/06/26 09:06:36;;;;;;;;;;;;;;;33.62;39.15;91125.13;5046969;28;20395;-66
2022/06/26 09:09:12;;;;;;;;;;;;;;;33.68;39.39;91122.56;5019744;28;19925;-67
2022/06/26 09:11:38;;;;;;;;;;;;;;;35.91;34.28;91121.38;5021030;28;19975;-67
2022/06/26 09:14:03;;;;;;;;;;;;;;;36.96;34.84;91124.56;5015204;28;19917;-66
2022/06/26 09:16:32;;;;;;;;;;;;;;;39.75;31.82;91128.94;5022482;28;19975;-66
2022/06/26 09:19:12;;;;;;;;;;;;;;;38.50;32.10;91132.28;5031495;28;19982;-66
2022/06/26 09:21:38;;;;;;;;;;;;;;;38.15;33.68;91118.25;5024611;28;19917;-67
2022/06/26 09:24:07;;;;;;;;;;;;;;;38.29;32.54;91117.53;5031102;28;19913;-67
2022/06/26 09:26:33;;;;;;;;;;;;;;;38.35;32.15;91120.44;5021041;28;19920;-67
2022/06/26 09:29:07;;;;;;;;;;;;;;;38.60;34.09;91116.28;5024691;28;19916;-66
2022/06/26 09:31:35;;;;;;;;;;;;;;;37.19;34.77;91120.28;5026022;28;19913;-67
2022/06/26 09:34:01;;;;;;;;;;;;;;;37.76;33.74;91121.06;5019708;28;19970;-67
2022/06/26 09:36:26;;;;;;;;;;;;;;;37.21;33.56;91119.81;5024129;28;20004;-67
2022/06/26 09:38:51;;;;;;;;;;;;;;;36.41;33.95;91121.94;5025368;28;19982;-67
2022/06/26 09:41:27;;;;;;;;;;;;;;;37.98;33.17;91117.16;5026815;28;20015;-67
2022/06/26 09:43:53;;;;;;;;;;;;;;;38.27;34.47;91113.69;5028000;28;19920;-66
2022/06/26 09:46:19;;;;;;;;;;;;;;;37.21;33.91;91106.69;5018282;28;19913;-66
2022/06/26 09:48:44;;;;;;;;;;;;;;;33.25;38.72;91102.69;5011197;28;19917;-65
2022/06/26 09:51:10;;;;;;;;;;;;;;;35.11;38.06;91099.44;5010721;28;19921;-66
2022/06/26 09:53:36;;;;;;;;;;;;;;;36.22;37.11;91109.34;5010914;28;19921;-66
2022/06/26 09:56:02;;;;;;;;;;;;;;;36.36;34.98;91105.97;5010949;28;19963;-66
2022/06/26 09:58:28;;;;;;;;;;;;;;;36.54;36.75;91105.91;5010885;28;19913;-68
2022/06/26 10:06:25;;;;;;;;;;;;;;;36.29;36.19;91106.25;5010577;28;19943;-65
2022/06/26 10:08:51;;;;;;;;;;;;;;;35.42;35.45;91102.13;5010934;28;19971;-65
2022/06/26 10:11:17;;;;;;;;;;;;;;;34.89;36.54;91109.84;5014556;28;20276;-65
2022/06/26 10:13:43;;;;;;;;;;;;;;;35.98;37.11;91103.69;5014316;28;20398;-65
2022/06/26 10:16:08;;;;;;;;;;;;;;;33.52;38.06;91101.44;5014283;28;19917;-65
2022/06/26 10:18:42;;;;;;;;;;;;;;;33.65;37.22;91094.66;4996564;28;19974;-65
2022/06/26 10:21:09;;;;;;;;;;;;;;;36.22;34.74;91095.50;5013821;28;19960;-65
2022/06/26 10:23:36;;;;;;;;;;;;;;;37.25;34.10;91096.22;5014112;28;19928;-65
2022/06/26 10:26:21;;;;;;;;;;;;;;;37.69;34.05;91090.06;5014467;28;20299;-65
2022/06/26 10:28:56;;;;;;;;;;;;;;;37.99;33.37;91085.38;5014268;28;20012;-65
2022/06/26 10:31:21;;;;;;;;;;;;;;;38.19;31.96;91085.53;5014609;28;19913;-65
2022/06/26 10:33:47;;;;;;;;;;;;;;;37.12;33.97;91088.13;5014140;28;20417;-65
2022/06/26 10:36:19;;;;;;;;;;;;;;;36.26;34.34;91082.25;5014446;28;20288;-65
2022/06/26 10:38:45;;;;;;;;;;;;;;;35.23;36.81;91079.19;5014222;28;19917;-64
2022/06/26 10:44:01;;;;;;;;;;;;;;;33.51;37.94;91073.09;5014262;28;19920;-66
2022/06/26 10:46:33;;;;;;;;;;;;;;;31.37;41.78;91073.34;5014195;28;19923;-65
2022/06/26 10:48:59;;;;;;;;;;;;;;;30.07;43.70;91074.13;5021490;28;19917;-66
2022/06/26 10:51:26;;;;;;;;;;;;;;;28.61;45.40;91070.63;5013975;28;19928;-66
2022/06/26 10:53:52;;;;;;;;;;;;;;;27.50;46.39;91060.47;5013603;28;19968;-66
2022/06/26 10:56:17;;;;;;;;;;;;;;;27.82;47.50;91060.06;5013679;28;20379;-66
2022/06/26 10:58:44;;;;;;;;;;;;;;;26.73;50.45;91058.16;5013707;28;20303;-66
2022/06/26 11:01:10;;;;;;;;;;;;;;;26.88;50.54;91058.78;5013784;28;19918;-65
2022/06/26 11:03:37;;;;;;;;;;;;;;;26.33;51.81;91056.16;5013131;28;20071;-65
2022/06/26 11:06:02;;;;;;;;;;;;;;;26.15;52.54;91064.47;5013465;28;19936;-65
2022/06/26 11:08:31;;;;;;;;;;;;;;;26.00;54.39;91071.19;5013514;28;19913;-64
2022/06/26 11:11:09;;;;;;;;;;;;;;;25.46;58.60;91074.22;5013495;28;19917;-64
2022/06/26 11:13:36;;;;;;;;;;;;;;;24.83;61.19;91075.97;5013263;28;20386;-64
2022/06/26 11:16:02;;;;;;;;;;;;;;;24.97;60.30;91083.31;5013336;28;19913;-64
2022/06/26 11:18:34;;;;;;;;;;;;;;;23.94;76.24;91078.69;5013141;28;19917;-64
2022/06/26 11:21:01;;;;;;;;;;;;;;;23.22;95.44;91077.75;5012927;28;19932;-64
2022/06/26 11:23:28;;;;;;;;;;;;;;;22.68;100.00;91082.09;5013209;28;20307;-63
2022/06/26 11:25:58;;;;;;;;;;;;;;;22.30;100.00;91072.56;5013317;28;19921;-64
2022/06/26 11:28:27;;;;;;;;;;;;;;;22.24;100.00;91067.84;5013148;28;20386;-64
2022/06/26 11:30:52;;;;;;;;;;;;;;;22.47;100.00;91078.47;5013135;28;20458;-64
2022/06/26 11:33:25;;;;;;;;;;;;;;;22.80;100.00;91078.28;5012959;28;20003;-64
2022/06/26 11:35:50;;;;;;;;;;;;;;;22.80;100.00;91072.09;5013258;28;19974;-64
2022/06/26 11:38:16;;;;;;;;;;;;;;;22.57;100.00;91069.66;5012972;28;20017;-64
2022/06/26 11:40:42;;;;;;;;;;;;;;;23.29;100.00;91068.84;5013026;28;19920;-64
2022/06/26 11:43:08;;;;;;;;;;;;;;;24.14;92.69;91073.66;5012976;28;20304;-64
2022/06/26 11:45:34;;;;;;;;;;;;;;;24.95;75.84;91069.31;5012843;28;19959;-64
2022/06/26 11:48:00;;;;;;;;;;;;;;;26.22;75.71;91061.72;5012934;28;19913;-64
2022/06/26 11:50:27;;;;;;;;;;;;;;;28.24;64.37;91071.53;5012814;28;19921;-64
2022/06/26 11:52:57;;;;;;;;;;;;;;;28.82;60.14;91072.97;5012768;28;19920;-64
2022/06/26 11:55:22;;;;;;;;;;;;;;;28.76;57.02;91071.91;5012617;28;19919;-64
2022/06/26 11:57:48;;;;;;;;;;;;;;;30.62;54.52;91067.00;5012744;28;19914;-64
2022/06/26 12:00:15;;;;;;;;;;;;;;;33.00;47.48;91066.94;5012637;28;20378;-65
2022/06/26 12:02:44;;;;;;;;;;;;;;;34.88;41.49;91075.13;5012598;28;19913;-65
2022/06/26 12:05:09;;;;;;;;;;;;;;;35.39;39.92;91067.84;5012360;28;19917;-65
2022/06/26 12:07:42;;;;;;;;;;;;;;;34.16;43.75;91066.78;5012593;28;20256;-65
2022/06/26 12:10:11;;;;;;;;;;;;;;;32.46;44.27;91063.13;5012485;28;19959;-64
2022/06/26 12:12:37;;;;;;;;;;;;;;;34.11;42.03;91067.38;5012386;28;19917;-65
2022/06/26 12:15:02;;;;;;;;;;;;;;;33.62;44.30;91058.91;5012255;28;19967;-64
2022/06/26 12:17:28;;;;;;;;;;;;;;;34.88;41.21;91056.53;5012322;28;19913;-65
2022/06/26 12:19:54;;;;;;;;;;;;;;;33.84;39.20;91058.91;5012406;28;19913;-65
2022/06/26 12:22:27;;;;;;;;;;;;;;;33.19;38.59;91060.38;5012330;28;19996;-65
2022/06/26 12:24:52;;;;;;;;;;;;;;;30.91;45.43;91055.28;5012430;28;20009;-65
2022/06/26 12:27:18;;;;;;;;;;;;;;;28.99;48.15;91051.97;5012412;28;20020;-64
2022/06/26 12:29:43;;;;;;;;;;;;;;;28.85;48.43;91052.19;5012128;28;20322;-65
2022/06/26 12:32:08;;;;;;;;;;;;;;;28.61;50.61;91052.22;5011301;28;19913;-64
2022/06/26 12:34:33;;;;;;;;;;;;;;;27.58;48.51;91047.47;5011757;28;19917;-64
2022/06/26 12:36:59;;;;;;;;;;;;;;;27.72;50.25;91050.81;5011983;28;19964;-64
2022/06/26 12:39:24;;;;;;;;;;;;;;;27.40;48.78;91043.00;4994311;28;20288;-64
2022/06/26 12:41:49;;;;;;;;;;;;;;;27.06;48.30;91053.16;5011970;28;19917;-64
2022/06/26 12:44:15;;;;;;;;;;;;;;;27.03;51.21;91052.03;5011720;28;19956;-64
2022/06/26 12:46:40;;;;;;;;;;;;;;;26.85;50.61;91048.69;5011816;28;19920;-64
2022/06/26 12:49:06;;;;;;;;;;;;;;;26.86;51.50;91050.25;5011849;28;19955;-64
2022/06/26 12:51:32;;;;;;;;;;;;;;;27.48;51.68;91046.44;5012000;28;19920;-65